Das ist die Wetter- und Hausseite der Bittkau's aus Magdeburg Ottersleben


Hier werden aktuelle Daten aus der privaten Wetterstation und

andere lokale Wettervorhersagen bereitgestellt




Thunder radar more information blitzortung!


Rain radar more information rain snow radar



Es ist keine erhöhte Aufmerksamkeit aufgrund des Wetters notwendig.    Es gibt keine Warnungen.

METAR-Meldungen aus der Umgebung

   
EDDP - Leipzig
Aktualisierung: 26.03.2019 1:20
Stark bewölkt  
Stark bewölkt  
   Wind: NNW 18.5 km/h
Wind: NNW 18.5 km/h
Temperatur: 4°C
Gefühlt: 0°C
Taupunkt: 2°C
Luftfeuchte: 87%
Luftdruck: 1024 hPa
Bewölkt: Stark bewölkt
Sichtbarkeit: More than 10 km
Bewölkung: Stark bewölkt 640.1 m
EDDP 260020Z 33010KT 9999 BKN021 04/02 Q1024 NOSIG
EDDC - Dresden
Aktualisierung: 26.03.2019 1:20
Klar  
Klar  
   Wind: WNW 9.3 km/h
Wind: WNW 9.3 km/h
Temperatur: 1°C
Gefühlt: -2°C
Taupunkt: 1°C
Luftfeuchte: 100%
Luftdruck: 1023 hPa
Sichtbarkeit: More than 10 km
Bewölkung: Klar
EDDC 260020Z 29005KT CAVOK 01/01 Q1023
EDDE - Erfurt
Aktualisierung: 26.03.2019 1:20
Stark bewölkt  
Stark bewölkt  
   Wind: NW 18.5 km/h
Wind: NW 18.5 km/h
Temperatur: 3°C
Gefühlt: -1°C
Taupunkt: 2°C
Luftfeuchte: 93%
Luftdruck: 1025 hPa
Bewölkt: Stark bewölkt
Sichtbarkeit: More than 10 km
Bewölkung: leicht bewölkt 701 m,
Stark bewölkt 1219.2 m
EDDE 260020Z 31010KT 9999 FEW023 BKN040 03/02 Q1025
EDVE - Braunschweig
Aktualisierung: 25.03.2019 9:50
Nicht aktuell
Stark bewölkt  
Stark bewölkt  
   Wind: WNW 11.1 km/h
Wind: WNW 11.1 km/h
Temperatur: 5°C
Gefühlt: 2°C
Taupunkt: 4°C
Luftfeuchte: 93%
Luftdruck: 1024 hPa
Bewölkt: Stark bewölkt
Sichtbarkeit: More than 10 km
Bewölkung: Stark bewölkt 1310.6 m
EDVE 252050Z 30006KT 9999 BKN043 05/04 Q1024
EDDV - Hannover
Aktualisierung: 26.03.2019 1:20
Nebel, Stark bewölkt  
Nebel, Stark bewölkt  
   Wind: Westen 11.1 km/h
Wind: Westen 11.1 km/h
Temperatur: 3°C
Gefühlt: 0°C
Taupunkt: 3°C
Luftfeuchte: 100%
Luftdruck: 1027 hPa
Bewölkt: Stark bewölkt
Sichtbarkeit: 5 km
Bewölkung: leicht bewölkt 121.9 m,
Stark bewölkt 182.9 m
EDDV 260020Z 27006KT 5000 BR FEW004 BKN006 03/03 Q1027
EDDT - Berlin
Aktualisierung: 26.03.2019 1:20
leicht bewölkt  
leicht bewölkt  
   Wind: WNW 9.3 km/h
Wind: WNW 9.3 km/h
Temperatur: 2°C
Gefühlt: -1°C
Taupunkt: 1°C
Luftfeuchte: 93%
Luftdruck: 1023 hPa
Bewölkt: leicht bewölkt
Sichtbarkeit: More than 10 km
Bewölkung: leicht bewölkt 670.6 m
EDDT 260020Z 29005KT 9999 FEW022 02/01 Q1023
EDDE - Schwerin
Aktualisierung: 26.03.2019 1:20
Stark bewölkt  
Stark bewölkt  
   Wind: NW 18.5 km/h
Wind: NW 18.5 km/h
Temperatur: 3°C
Gefühlt: -1°C
Taupunkt: 2°C
Luftfeuchte: 93%
Luftdruck: 1025 hPa
Bewölkt: Stark bewölkt
Sichtbarkeit: More than 10 km
Bewölkung: leicht bewölkt 701 m,
Stark bewölkt 1219.2 m
EDDE 260020Z 31010KT 9999 FEW023 BKN040 03/02 Q1025
EDHI - Hamburg
Aktualisierung: 26.03.2019 1:20
Bewölkt  
Bewölkt  
   Wind: WNW 16.7 km/h
Wind: WNW 16.7 km/h
Temperatur: 5°C
Gefühlt: 2°C
Taupunkt: 3°C
Luftfeuchte: 87%
Luftdruck: 1025 hPa
Bewölkt: Bewölkt
Sichtbarkeit: More than 10 km
Bewölkung: Bewölkt 396.2 m
EDHI 260020Z AUTO 29009KT 9999 // OVC013/// 05/03 Q1025
EDDK - Köln-Bonn
Aktualisierung: 26.03.2019 1:20
Stark bewölkt  
Stark bewölkt  
   Wind: NNW 11.1 km/h
Wind: NNW 11.1 km/h
Temperatur: 6°C
Gefühlt: 4°C
Taupunkt: 2°C
Luftfeuchte: 76%
Luftdruck: 1029 hPa
Bewölkt: Stark bewölkt
Sichtbarkeit: More than 10 km
Bewölkung: leicht bewölkt 609.6 m,
Stark bewölkt 1127.8 m
EDDK 260020Z 33006KT 300V360 9999 FEW020 BKN037 06/02 Q1029 NOSIG
EDHL - Lübeck-Blankensee
Aktualisierung: 25.03.2019 6:50
Nicht aktuell
leicht bewölkt  
leicht bewölkt  
   Wind: variiert 7.4 km/h
Wind: variiert 7.4 km/h
Temperatur: 6°C
Gefühlt: 4°C
Taupunkt: 1°C
Luftfeuchte: 71%
Luftdruck: 1021 hPa
Bewölkt: leicht bewölkt
Sichtbarkeit: More than 10 km
Bewölkung: leicht bewölkt 762 m
EDHL 251750Z VRB04KT 9999 FEW025 06/01 Q1021
  

Script entwickelt von  Saratoga-weather.org Angepasst für das Template von  Weerstation Leuven

Sie finden die Wetterinfo auch auf:

Wetternetzwerk Deutschland

European Weather Network

Weather Underground

Regionalwetter-SA

wetter.com

wxforum.de

Genutzte Hardware, Software und WEB Anbieter:

Wetterstation
Ventus W928-Ultimate

Wetterprogramm
Meteohub

WetterComputer
RaspberryPI

Anbieter
WEB Provider One.com

Ventus W928-Ultimate

Meteohub

RaspberryPI

WEB Provider One.com